Time;durP1;ratioP1;P1;durP2;ratioP2;P2;SDS_P1;SDS_P2;PMS_P1;PMS_P2;Temp;Humidity;BMP_temperature;BMP_pressure;BME280_temperature;BME280_humidity;BME280_pressure;Samples;Min_cycle;Max_cycle;Signal;HPM_P1;HPM_P2
2021/08/08 00:01:58;;;;;;;2.65;2.10;;;;;;;16.85;69.43;99870.82;1805824;78;26007;-70
2021/08/08 00:04:25;;;;;;;9.15;3.60;;;;;;;16.78;69.77;99871.45;1803336;78;27423;-69
2021/08/08 00:06:51;;;;;;;10.18;3.02;;;;;;;16.68;69.69;99866.41;1801454;78;25701;-69
2021/08/08 00:09:19;;;;;;;10.80;2.85;;;;;;;16.61;69.74;99866.02;1801710;78;25845;-69
2021/08/08 00:11:50;;;;;;;5.53;2.60;;;;;;;16.56;69.79;99858.27;1802166;78;25691;-70
2021/08/08 00:14:16;;;;;;;7.60;2.92;;;;;;;16.50;69.96;99852.00;1803899;78;25766;-69
2021/08/08 00:16:44;;;;;;;10.25;2.90;;;;;;;16.47;70.07;99841.42;1797892;78;27459;-69
2021/08/08 00:19:10;;;;;;;2.83;2.47;;;;;;;16.46;70.10;99836.14;1794916;79;25829;-69
2021/08/08 00:21:36;;;;;;;7.25;3.30;;;;;;;16.43;70.37;99839.95;1783060;79;25854;-68
2021/08/08 00:24:05;;;;;;;9.80;3.83;;;;;;;16.43;70.50;99844.01;1774904;79;26493;-70
2021/08/08 00:26:33;;;;;;;9.18;3.30;;;;;;;16.42;70.64;99839.58;1797257;79;25239;-67
2021/08/08 00:29:01;;;;;;;16.37;3.40;;;;;;;16.42;70.85;99830.11;1788868;79;27558;-67
2021/08/08 00:31:27;;;;;;;21.82;3.67;;;;;;;16.42;70.98;99819.30;1788259;79;26706;-70
2021/08/08 00:33:55;;;;;;;6.42;3.50;;;;;;;16.45;71.11;99799.25;1787239;79;25309;-67
2021/08/08 00:36:23;;;;;;;11.30;5.20;;;;;;;16.43;71.08;99783.14;1785077;79;25751;-67
2021/08/08 00:38:52;;;;;;;11.28;5.30;;;;;;;16.42;71.08;99785.48;1789952;79;25793;-68
2021/08/08 00:41:18;;;;;;;12.45;4.58;;;;;;;16.41;71.24;99774.79;1790937;79;27460;-67
2021/08/08 00:43:46;;;;;;;6.40;3.67;;;;;;;16.42;71.44;99775.16;1780148;79;25867;-67
2021/08/08 00:46:12;;;;;;;4.92;3.42;;;;;;;16.46;71.57;99768.52;1785227;79;26633;-67
2021/08/08 00:48:43;;;;;;;8.03;4.05;;;;;;;16.52;71.88;99763.95;1770934;79;25758;-68
2021/08/08 00:51:11;;;;;;;11.65;3.52;;;;;;;16.57;71.88;99783.38;1827620;77;26103;-67
2021/08/08 00:53:37;;;;;;;9.73;4.05;;;;;;;16.62;72.03;99786.56;1778994;79;27689;-67
2021/08/08 00:56:06;;;;;;;13.35;4.53;;;;;;;16.66;72.21;99790.77;1822121;77;25742;-68
2021/08/08 00:58:32;;;;;;;7.90;3.45;;;;;;;16.68;72.28;99785.23;1785130;79;25780;-66
2021/08/08 01:01:02;;;;;;;7.75;4.00;;;;;;;16.67;72.18;99783.52;1826953;77;27367;-67
2021/08/08 01:03:32;;;;;;;8.45;4.00;;;;;;;16.66;72.42;99796.19;1828301;77;25705;-66
2021/08/08 01:06:09;;;;;;;9.23;3.40;;;;;;;16.70;72.60;99802.20;1822507;77;27432;-67
2021/08/08 01:08:41;;;;;;;12.80;4.47;;;;;;;16.73;72.75;99797.89;1750944;79;25832;-67
2021/08/08 01:11:08;;;;;;;14.63;4.40;;;;;;;16.75;72.85;99777.84;1757326;79;25889;-67
2021/08/08 01:13:37;;;;;;;9.13;3.90;;;;;;;16.74;72.71;99765.78;1774850;79;25797;-69
2021/08/08 01:16:05;;;;;;;12.33;4.90;;;;;;;16.73;72.85;99767.63;1833938;77;26454;-69
2021/08/08 01:18:35;;;;;;;10.38;4.65;;;;;;;16.73;73.02;99783.01;1767950;79;29252;-69
2021/08/08 01:21:03;;;;;;;18.10;5.22;;;;;;;16.77;73.25;99800.71;1861877;76;26260;-69
2021/08/08 01:23:32;;;;;;;11.18;4.33;;;;;;;16.82;73.32;99797.14;1842408;76;25737;-69
2021/08/08 01:26:01;;;;;;;11.90;4.80;;;;;;;16.84;73.45;99777.08;1860310;76;25790;-70
2021/08/08 01:28:30;;;;;;;11.22;4.65;;;;;;;16.86;73.66;99760.22;1862044;76;25688;-70
2021/08/08 01:30:57;;;;;;;8.53;4.75;;;;;;;16.87;73.63;99748.89;1823634;78;27390;-70
2021/08/08 01:33:28;;;;;;;8.88;4.30;;;;;;;16.85;73.69;99747.67;1810553;78;25861;-70
2021/08/08 01:35:55;;;;;;;9.43;3.47;;;;;;;16.84;73.68;99762.68;1811645;78;25751;-70
2021/08/08 01:38:22;;;;;;;10.48;4.10;;;;;;;16.86;73.95;99764.77;1852674;76;26553;-67
2021/08/08 01:41:02;;;;;;;5.47;3.75;;;;;;;16.90;74.14;99747.28;1859084;76;25783;-68
2021/08/08 01:43:32;;;;;;;4.60;2.55;;;;;;;16.91;74.00;99731.91;1812198;78;27467;-69
2021/08/08 01:46:06;;;;;;;3.80;2.97;;;;;;;16.82;73.95;99726.77;1858264;76;25719;-69
2021/08/08 01:48:37;;;;;;;5.45;3.30;;;;;;;16.74;74.36;99721.13;1808844;78;25718;-69
2021/08/08 01:51:03;;;;;;;6.40;3.15;;;;;;;16.74;74.41;99703.55;1822474;78;25742;-69
2021/08/08 01:53:30;;;;;;;6.42;3.02;;;;;;;16.72;74.51;99705.03;1810073;78;25818;-68
2021/08/08 01:55:57;;;;;;;6.12;2.70;;;;;;;16.72;74.57;99706.88;1854541;76;29648;-68
2021/08/08 01:58:31;;;;;;;8.33;3.30;;;;;;;16.68;74.53;99714.39;1806531;78;25722;-68
2021/08/08 02:01:00;;;;;;;7.67;3.50;;;;;;;16.68;74.85;99713.53;1804206;78;25789;-69
2021/08/08 02:03:37;;;;;;;6.25;3.77;;;;;;;16.72;75.01;99708.23;1778338;79;25879;-70
2021/08/08 02:06:08;;;;;;;6.40;4.05;;;;;;;16.73;74.97;99708.59;1782471;79;25644;-70
2021/08/08 02:08:35;;;;;;;6.33;4.30;;;;;;;16.73;75.05;99709.95;1804069;78;28380;-70
2021/08/08 02:11:04;;;;;;;7.10;4.50;;;;;;;16.75;75.19;99714.24;1808958;78;27275;-70
2021/08/08 02:13:31;;;;;;;9.75;4.75;;;;;;;16.81;75.35;99722.34;1810732;78;26035;-70
2021/08/08 02:15:59;;;;;;;9.88;5.78;;;;;;;16.85;75.42;99724.66;1808812;78;27799;-70
2021/08/08 02:18:26;;;;;;;13.85;5.25;;;;;;;16.90;75.45;99732.89;1806309;78;25815;-70
2021/08/08 02:20:52;;;;;;;6.92;5.00;;;;;;;16.92;75.48;99739.89;1807576;77;27585;-70
2021/08/08 02:23:18;;;;;;;15.10;4.95;;;;;;;16.93;75.56;99739.40;1801314;78;25828;-70
2021/08/08 02:25:45;;;;;;;11.45;5.10;;;;;;;16.93;75.70;99730.78;1817937;78;25821;-70
2021/08/08 02:28:14;;;;;;;8.23;4.58;;;;;;;16.94;75.67;99725.73;1806773;78;25821;-70
2021/08/08 02:30:39;;;;;;;9.58;4.83;;;;;;;16.94;75.78;99718.97;1805489;78;26073;-71
2021/08/08 02:33:05;;;;;;;8.40;5.42;;;;;;;16.94;75.79;99717.61;1811615;78;27400;-71
2021/08/08 02:35:33;;;;;;;10.80;5.50;;;;;;;16.97;75.95;99724.13;1820191;78;25888;-71
2021/08/08 02:38:01;;;;;;;11.28;5.05;;;;;;;16.99;76.02;99723.50;1805349;78;25789;-71
2021/08/08 02:40:28;;;;;;;5.95;5.28;;;;;;;17.02;76.08;99726.44;1809037;78;27810;-70
2021/08/08 02:42:54;;;;;;;14.00;5.15;;;;;;;17.01;76.05;99766.69;1808003;78;26646;-70
2021/08/08 02:45:24;;;;;;;6.67;3.50;;;;;;;16.96;77.25;99776.55;1807146;78;27552;-72
2021/08/08 02:47:52;;;;;;;8.10;4.53;;;;;;;16.84;77.67;99777.56;1818411;78;25839;-71
2021/08/08 02:50:18;;;;;;;8.65;4.97;;;;;;;16.78;78.20;99779.43;1802402;78;25810;-72
2021/08/08 02:52:44;;;;;;;11.08;6.45;;;;;;;16.72;78.89;99776.73;1818721;78;26372;-72
2021/08/08 02:55:12;;;;;;;7.92;5.08;;;;;;;16.66;78.89;99764.20;1787573;79;25918;-72
2021/08/08 02:57:38;;;;;;;9.68;5.85;;;;;;;16.60;78.99;99768.73;1816829;78;27410;-72
2021/08/08 03:00:08;;;;;;;8.58;4.92;;;;;;;16.54;79.02;99765.55;1812968;78;26318;-72
2021/08/08 03:02:34;;;;;;;10.03;4.92;;;;;;;16.50;79.25;99774.04;1815989;78;25749;-72
2021/08/08 03:05:00;;;;;;;7.50;4.53;;;;;;;16.45;79.55;99776.27;1803582;78;26402;-72
2021/08/08 03:07:28;;;;;;;9.73;4.75;;;;;;;16.42;79.90;99785.98;1850621;76;25735;-72
2021/08/08 03:09:54;;;;;;;8.55;4.50;;;;;;;16.39;80.06;99784.88;1859752;76;27567;-71
2021/08/08 03:12:20;;;;;;;8.85;4.75;;;;;;;16.36;80.00;99782.41;1856861;76;25763;-71
2021/08/08 03:14:46;;;;;;;7.55;4.60;;;;;;;16.34;79.87;99785.24;1856512;76;25900;-72
2021/08/08 03:17:13;;;;;;;10.05;4.97;;;;;;;16.35;79.79;99795.08;1853881;76;25842;-72
2021/08/08 03:19:40;;;;;;;9.75;5.37;;;;;;;16.33;79.77;99792.98;1853057;76;25871;-72
2021/08/08 03:22:07;;;;;;;9.38;5.80;;;;;;;16.33;79.76;99808.36;1869073;76;27367;-72
2021/08/08 03:24:35;;;;;;;5.95;4.67;;;;;;;16.32;79.76;99818.31;1869981;76;25732;-71
2021/08/08 03:27:04;;;;;;;14.78;6.12;;;;;;;16.31;79.90;99827.41;1859886;75;25657;-72
2021/08/08 03:29:30;;;;;;;6.35;5.45;;;;;;;16.28;79.86;99850.64;1808762;78;26135;-72
2021/08/08 03:31:56;;;;;;;7.72;5.72;;;;;;;16.29;79.93;99853.72;1856407;76;25850;-72
2021/08/08 03:34:22;;;;;;;7.70;5.75;;;;;;;16.30;79.96;99841.91;1850600;76;27532;-72
2021/08/08 03:36:48;;;;;;;7.12;5.10;;;;;;;16.29;79.97;99853.72;1850668;75;26100;-72
2021/08/08 03:39:17;;;;;;;14.53;6.45;;;;;;;16.30;80.10;99851.38;1805496;78;25740;-72
2021/08/08 03:41:44;;;;;;;11.83;6.50;;;;;;;16.28;80.30;99846.58;1854676;76;25774;-72
2021/08/08 03:44:10;;;;;;;15.65;6.35;;;;;;;16.28;80.70;99864.16;1858169;76;25748;-72
2021/08/08 03:46:38;;;;;;;7.55;5.53;;;;;;;16.29;80.82;99879.41;1820396;78;25876;-72
2021/08/08 03:49:04;;;;;;;10.78;5.60;;;;;;;16.29;80.85;99869.94;1801690;77;25775;-72
2021/08/08 03:51:32;;;;;;;11.85;6.42;;;;;;;16.28;80.73;99866.86;1861567;76;25794;-72
2021/08/08 03:53:59;;;;;;;13.30;6.53;;;;;;;16.32;80.75;99874.24;1818774;78;25793;-72
2021/08/08 03:56:27;;;;;;;16.30;6.37;;;;;;;16.30;80.72;99864.90;1804420;78;25754;-72
2021/08/08 03:58:53;;;;;;;9.00;6.08;;;;;;;16.33;80.73;99867.85;1807141;78;28147;-73
2021/08/08 04:01:19;;;;;;;15.00;7.05;;;;;;;16.34;80.65;99869.58;1813364;78;25723;-73
2021/08/08 04:03:46;;;;;;;12.18;7.00;;;;;;;16.33;80.69;99871.42;1808660;78;25789;-72
2021/08/08 04:06:12;;;;;;;12.70;6.08;;;;;;;16.33;80.70;99868.71;1812414;78;25716;-72
2021/08/08 04:08:38;;;;;;;11.50;7.20;;;;;;;16.35;80.71;99865.89;1824511;78;25962;-73
2021/08/08 04:11:12;;;;;;;11.28;6.72;;;;;;;16.35;80.69;99853.72;1821069;78;27352;-72
2021/08/08 04:13:38;;;;;;;8.70;6.33;;;;;;;16.37;80.64;99861.22;1820300;78;25777;-72
2021/08/08 04:16:05;;;;;;;9.55;7.05;;;;;;;16.35;80.65;99877.56;1815860;78;25707;-72
2021/08/08 04:18:31;;;;;;;9.70;6.35;;;;;;;16.35;80.64;99888.38;1836028;76;25800;-72
2021/08/08 04:20:59;;;;;;;7.60;6.35;;;;;;;16.34;80.64;99886.66;1829128;77;25737;-72
2021/08/08 04:23:28;;;;;;;7.20;5.65;;;;;;;16.35;80.62;99891.09;1819020;77;27431;-72
2021/08/08 04:25:55;;;;;;;13.20;7.05;;;;;;;16.34;80.62;99911.00;1828440;77;25807;-72
2021/08/08 04:28:23;;;;;;;9.83;5.60;;;;;;;16.35;80.64;99910.52;1843386;77;25741;-72
2021/08/08 04:30:49;;;;;;;8.93;6.37;;;;;;;16.34;80.63;99898.83;1830414;77;25742;-72
2021/08/08 04:33:17;;;;;;;11.25;6.67;;;;;;;16.35;80.63;99890.23;1835475;77;26567;-73
2021/08/08 04:35:43;;;;;;;8.73;6.20;;;;;;;16.35;80.74;99891.09;1823784;77;28273;-73
2021/08/08 04:38:09;;;;;;;17.12;5.85;;;;;;;16.36;80.65;99896.87;1834822;77;25823;-72
2021/08/08 04:40:34;;;;;;;11.03;6.10;;;;;;;16.39;80.63;99893.92;1827738;77;25812;-73
2021/08/08 04:43:02;;;;;;;9.65;6.42;;;;;;;16.39;80.63;99889.86;1834797;77;25908;-73
2021/08/08 04:45:28;;;;;;;8.10;5.75;;;;;;;16.41;80.70;99882.98;1824709;77;25825;-73
2021/08/08 04:47:55;;;;;;;9.65;6.12;;;;;;;16.41;80.64;99892.45;1832324;77;27559;-70
2021/08/08 04:50:23;;;;;;;7.70;5.55;;;;;;;16.42;80.66;99886.05;1829579;77;27186;-74
2021/08/08 04:52:49;;;;;;;8.23;5.97;;;;;;;16.45;80.79;99896.63;1823832;77;25823;-74
2021/08/08 04:55:18;;;;;;;9.28;6.20;;;;;;;16.46;80.77;99901.06;1830542;77;25838;-74
2021/08/08 04:57:46;;;;;;;8.10;5.35;;;;;;;16.45;80.74;99898.84;1826796;77;25746;-74
2021/08/08 05:00:16;;;;;;;10.08;5.28;;;;;;;16.48;80.72;99901.30;1821018;77;27449;-74
2021/08/08 05:02:50;;;;;;;9.48;5.45;;;;;;;16.49;80.83;99915.20;1823243;77;25927;-74
2021/08/08 05:05:18;;;;;;;8.48;5.28;;;;;;;16.50;80.78;99923.69;1823942;77;26527;-73
2021/08/08 05:07:45;;;;;;;9.55;5.20;;;;;;;16.50;80.76;99932.30;1828334;77;27214;-73
2021/08/08 05:10:16;;;;;;;10.23;4.87;;;;;;;16.47;80.91;99936.09;1823508;77;25667;-73
2021/08/08 05:12:44;;;;;;;9.10;4.62;;;;;;;16.50;80.88;99949.88;1822432;77;27425;-74
2021/08/08 05:15:13;;;;;;;7.80;5.08;;;;;;;16.51;80.89;99947.54;1832333;77;25999;-73
2021/08/08 05:17:41;;;;;;;6.00;4.28;;;;;;;16.51;81.00;99948.41;1827783;76;25750;-73
2021/08/08 05:20:12;;;;;;;8.25;5.42;;;;;;;16.50;81.00;99952.09;1831049;77;25850;-73
2021/08/08 05:22:40;;;;;;;9.50;4.47;;;;;;;16.51;80.97;99944.34;1831857;77;26001;-73
2021/08/08 05:25:10;;;;;;;7.50;4.45;;;;;;;16.52;81.08;99938.44;1823205;77;27529;-73
2021/08/08 05:27:37;;;;;;;7.87;4.55;;;;;;;16.53;81.05;99945.58;1815644;77;25894;-73
2021/08/08 05:30:08;;;;;;;7.08;4.33;;;;;;;16.53;81.16;99958.61;1820749;77;25895;-73
2021/08/08 05:32:35;;;;;;;7.80;4.65;;;;;;;16.55;81.15;99951.73;1821656;77;25755;-71
2021/08/08 05:35:04;;;;;;;6.47;4.92;;;;;;;16.59;81.22;99950.50;1834439;77;25992;-69
2021/08/08 05:37:30;;;;;;;5.80;4.47;;;;;;;16.63;81.22;99953.83;1827127;77;27526;-71
2021/08/08 05:39:59;;;;;;;5.70;4.60;;;;;;;16.66;81.22;99946.36;1823894;77;25764;-71
2021/08/08 05:42:24;;;;;;;8.58;5.33;;;;;;;16.70;81.29;99932.95;1822074;77;25761;-71
2021/08/08 05:44:52;;;;;;;6.80;5.20;;;;;;;16.74;81.28;99936.28;1828754;77;25741;-71
2021/08/08 05:47:20;;;;;;;13.53;4.97;;;;;;;16.80;81.36;99939.84;1842791;77;25777;-72
2021/08/08 05:49:46;;;;;;;7.35;4.03;;;;;;;16.84;81.43;99957.06;1830234;76;27441;-72
2021/08/08 05:52:14;;;;;;;4.40;3.77;;;;;;;16.90;81.42;99961.62;1823641;77;26107;-72
2021/08/08 05:54:40;;;;;;;8.48;5.00;;;;;;;16.95;81.47;99965.68;1830463;77;25771;-72
2021/08/08 05:57:06;;;;;;;15.53;4.60;;;;;;;16.99;81.43;99965.80;1829494;77;26297;-72
2021/08/08 05:59:32;;;;;;;9.50;5.00;;;;;;;17.01;81.45;99968.38;1825979;77;25962;-73
2021/08/08 06:01:58;;;;;;;8.60;4.53;;;;;;;17.02;81.44;99975.52;1825650;77;27460;-72
2021/08/08 06:04:24;;;;;;;8.08;4.45;;;;;;;17.02;81.52;99976.38;1833570;77;25646;-71
2021/08/08 06:06:50;;;;;;;13.18;5.55;;;;;;;17.07;81.53;99970.11;1824478;77;25719;-70
2021/08/08 06:09:16;;;;;;;8.58;5.25;;;;;;;17.14;81.66;99979.45;1833704;77;25827;-70
2021/08/08 06:11:45;;;;;;;12.88;5.28;;;;;;;17.16;81.55;99999.15;1819940;77;25752;-71
2021/08/08 06:14:13;;;;;;;7.03;5.05;;;;;;;17.22;81.62;100012.69;1830425;77;27361;-71
2021/08/08 06:16:40;;;;;;;11.03;5.00;;;;;;;17.30;81.65;100003.94;1818889;77;25774;-72
2021/08/08 06:19:05;;;;;;;6.42;4.08;;;;;;;17.38;81.79;99998.27;1826217;77;25756;-73
2021/08/08 06:21:33;;;;;;;7.03;4.12;;;;;;;17.42;81.71;100009.22;1827181;77;25769;-72
2021/08/08 06:24:04;;;;;;;7.60;4.70;;;;;;;17.51;82.19;100017.95;1821031;77;25733;-73
2021/08/08 06:26:32;;;;;;;5.47;4.12;;;;;;;17.56;81.85;100022.99;1817508;77;27359;-75
2021/08/08 06:29:04;;;;;;;6.25;4.00;;;;;;;17.61;81.91;100024.83;1834598;77;26104;-73
2021/08/08 06:31:28;;;;;;;10.00;3.87;;;;;;;17.66;82.05;100021.28;1832915;76;25802;-74
2021/08/08 06:33:54;;;;;;;6.85;4.00;;;;;;;17.68;82.06;100026.08;1825375;77;26488;-73
2021/08/08 06:36:21;;;;;;;6.95;4.17;;;;;;;17.72;82.08;100023.48;1830713;77;25733;-74
2021/08/08 06:38:51;;;;;;;4.95;4.17;;;;;;;17.78;81.91;100020.76;1829838;77;27486;-73
2021/08/08 06:41:21;;;;;;;6.70;3.87;;;;;;;17.85;81.72;100016.55;1836065;77;28032;-73
2021/08/08 06:43:48;;;;;;;5.53;3.70;;;;;;;17.91;81.79;100009.75;1835776;77;26535;-72
2021/08/08 06:46:14;;;;;;;10.68;4.20;;;;;;;17.99;81.64;100013.54;1825995;77;26576;-72
2021/08/08 06:48:40;;;;;;;7.60;3.45;;;;;;;18.06;81.47;100024.23;1825022;77;26272;-68
2021/08/08 06:51:06;;;;;;;6.75;3.67;;;;;;;18.07;81.39;100035.45;1824364;77;28149;-72
2021/08/08 06:53:34;;;;;;;4.97;4.10;;;;;;;18.02;81.22;100033.63;1820969;77;27305;-72
2021/08/08 06:56:00;;;;;;;10.85;3.85;;;;;;;17.98;81.20;100016.37;1829657;77;25758;-72
2021/08/08 06:59:21;;;;;;;9.13;4.03;;;;;;;18.02;81.12;100004.28;1823563;77;25876;-71
2021/08/08 07:01:49;;;;;;;7.55;3.58;;;;;;;18.03;81.03;99991.09;1818634;77;25932;-72
2021/08/08 07:04:17;;;;;;;7.00;3.75;;;;;;;18.09;80.97;99994.14;1835070;77;27477;-71
2021/08/08 07:06:45;;;;;;;5.10;4.17;;;;;;;18.12;80.87;100018.30;1825005;77;25811;-72
2021/08/08 07:09:12;;;;;;;5.72;3.90;;;;;;;18.09;80.78;100015.84;1826096;77;26165;-73
2021/08/08 07:11:38;;;;;;;9.45;3.83;;;;;;;18.03;80.70;100041.27;1834028;77;25767;-72
2021/08/08 07:14:06;;;;;;;7.33;3.45;;;;;;;18.00;80.73;100033.38;1828247;77;25749;-72
2021/08/08 07:16:32;;;;;;;12.00;3.98;;;;;;;18.01;80.70;100032.39;1830371;77;28202;-72
2021/08/08 07:19:00;;;;;;;9.93;4.33;;;;;;;18.02;80.64;100021.91;1829693;76;27246;-72
2021/08/08 07:21:30;;;;;;;6.83;3.60;;;;;;;18.04;80.58;100005.88;1845364;76;26450;-74
2021/08/08 07:23:59;;;;;;;4.47;3.22;;;;;;;18.12;80.52;100015.58;1843463;76;25738;-71
2021/08/08 07:26:29;;;;;;;12.13;3.95;;;;;;;18.12;80.44;100003.88;1840961;76;25764;-72
2021/08/08 07:28:55;;;;;;;7.60;3.77;;;;;;;18.12;80.47;100008.80;1809567;78;27303;-72
2021/08/08 07:31:21;;;;;;;5.35;3.55;;;;;;;18.11;80.44;100012.50;1809684;78;25803;-72
2021/08/08 07:33:53;;;;;;;5.67;3.45;;;;;;;18.15;80.45;100010.39;1814211;78;25981;-73
2021/08/08 07:36:20;;;;;;;8.03;3.72;;;;;;;18.23;80.44;100022.78;1805466;78;25699;-72
2021/08/08 07:38:48;;;;;;;6.30;3.50;;;;;;;18.36;80.34;100026.17;1814317;78;25647;-72
2021/08/08 07:41:16;;;;;;;7.78;4.35;;;;;;;18.43;80.21;100033.29;1808407;78;28236;-71
2021/08/08 07:43:45;;;;;;;8.33;4.17;;;;;;;18.40;79.93;100037.13;1818651;77;25980;-73
2021/08/08 07:46:15;;;;;;;5.67;4.17;;;;;;;18.38;79.98;100039.11;1817260;78;25509;-72
2021/08/08 07:48:46;;;;;;;9.08;3.55;;;;;;;18.36;79.90;100032.95;1819741;78;25860;-72
2021/08/08 07:51:15;;;;;;;7.12;3.62;;;;;;;18.33;79.92;100037.78;1804506;78;26620;-73
2021/08/08 07:53:42;;;;;;;6.62;3.67;;;;;;;18.41;79.92;100041.56;1810505;78;27482;-73
2021/08/08 07:56:10;;;;;;;9.50;3.70;;;;;;;18.55;79.86;100047.16;1815695;78;26339;-73
2021/08/08 07:58:38;;;;;;;6.58;3.10;;;;;;;18.63;79.67;100058.75;1805361;78;25775;-73
2021/08/08 08:01:06;;;;;;;3.92;3.17;;;;;;;18.70;79.48;100059.45;1809486;78;25774;-72
2021/08/08 08:03:32;;;;;;;5.80;3.87;;;;;;;18.68;79.30;100060.58;1804474;78;25696;-73
2021/08/08 08:05:58;;;;;;;5.37;3.35;;;;;;;18.70;79.22;100059.95;1808834;78;27343;-72
2021/08/08 08:08:25;;;;;;;4.70;3.12;;;;;;;18.72;79.13;100062.03;1803333;78;25729;-72
2021/08/08 08:10:55;;;;;;;5.53;2.55;;;;;;;18.77;79.01;100062.00;1807673;78;25518;-73
2021/08/08 08:13:22;;;;;;;6.00;2.75;;;;;;;18.74;78.78;100070.41;1808184;78;26548;-72
2021/08/08 08:15:50;;;;;;;7.03;2.80;;;;;;;18.73;78.69;100065.97;1800990;78;26494;-72
2021/08/08 08:18:17;;;;;;;2.83;2.42;;;;;;;18.81;78.62;100069.38;1810763;78;26418;-72
2021/08/08 08:20:46;;;;;;;8.00;2.65;;;;;;;18.96;78.60;100069.41;1821367;78;25779;-72
2021/08/08 08:23:12;;;;;;;7.90;2.45;;;;;;;19.10;78.43;100077.20;1806487;78;25766;-72
2021/08/08 08:25:38;;;;;;;2.60;2.40;;;;;;;19.25;78.21;100074.13;1811375;77;25745;-71
2021/08/08 08:28:05;;;;;;;3.67;2.65;;;;;;;19.31;78.01;100081.74;1758487;79;26013;-72
2021/08/08 08:30:33;;;;;;;4.58;1.98;;;;;;;19.30;77.60;100080.02;1769283;80;27364;-73
2021/08/08 08:33:04;;;;;;;2.47;2.20;;;;;;;19.28;77.26;100082.88;1804283;78;26454;-74
2021/08/08 08:35:30;;;;;;;3.02;2.15;;;;;;;19.27;77.25;100087.09;1809100;78;25769;-72
2021/08/08 08:38:00;;;;;;;5.70;2.12;;;;;;;19.31;77.24;100089.39;1817876;78;25825;-71
2021/08/08 08:40:26;;;;;;;4.47;2.12;;;;;;;19.44;76.72;100101.41;1817378;78;25956;-70
2021/08/08 08:42:58;;;;;;;3.20;1.70;;;;;;;19.49;76.72;100088.76;1803961;78;27428;-71
2021/08/08 08:45:26;;;;;;;7.70;1.95;;;;;;;19.54;76.39;100095.54;1803036;78;26657;-71
2021/08/08 08:47:55;;;;;;;3.62;1.87;;;;;;;19.47;76.23;100084.82;1808815;78;26352;-70
2021/08/08 08:50:24;;;;;;;2.47;1.77;;;;;;;19.51;75.83;100090.84;1809671;78;27887;-70
2021/08/08 08:52:51;;;;;;;3.05;2.12;;;;;;;19.45;75.56;100089.53;1816239;78;25768;-70
2021/08/08 08:55:20;;;;;;;3.90;1.85;;;;;;;19.48;75.62;100091.98;1799440;78;27368;-71
2021/08/08 08:57:47;;;;;;;5.17;1.80;;;;;;;19.62;75.68;100102.51;1802586;78;27237;-70
2021/08/08 09:00:15;;;;;;;2.45;1.82;;;;;;;19.71;75.18;100099.47;1815306;78;25769;-72
2021/08/08 09:02:45;;;;;;;4.42;1.90;;;;;;;19.73;75.08;100090.17;1804485;78;25760;-72
2021/08/08 09:05:12;;;;;;;7.90;1.90;;;;;;;19.81;75.12;100092.70;1812508;78;25779;-72
2021/08/08 09:07:41;;;;;;;1.60;1.50;;;;;;;19.87;74.91;100081.27;1805882;78;27721;-71
2021/08/08 09:10:13;;;;;;;3.42;1.72;;;;;;;19.93;74.47;100097.02;1809236;78;26388;-72
2021/08/08 09:12:42;;;;;;;5.03;1.98;;;;;;;19.93;74.02;100091.58;1797856;78;26513;-72
2021/08/08 09:15:11;;;;;;;3.15;2.62;;;;;;;19.93;73.94;100093.80;1799200;78;25843;-71
2021/08/08 09:17:40;;;;;;;2.42;1.57;;;;;;;19.95;73.86;100091.80;1806113;78;26386;-72
2021/08/08 09:20:10;;;;;;;5.10;1.25;;;;;;;20.01;73.19;100095.83;1833315;77;27596;-73
2021/08/08 09:22:42;;;;;;;3.10;1.57;;;;;;;20.08;73.03;100099.70;1809393;77;25704;-73
2021/08/08 09:25:23;;;;;;;4.03;1.92;;;;;;;20.15;73.14;100095.42;1809319;77;25702;-72
2021/08/08 09:27:50;;;;;;;1.90;1.40;;;;;;;20.31;72.61;100120.22;1820246;77;25723;-72
2021/08/08 09:30:22;;;;;;;3.42;1.50;;;;;;;20.37;72.49;100120.16;1807923;77;25746;-72
2021/08/08 09:33:04;;;;;;;9.45;1.80;;;;;;;20.50;72.52;100111.25;1827308;77;27891;-73
2021/08/08 09:35:40;;;;;;;4.17;1.40;;;;;;;20.62;71.56;100116.91;1823953;77;26436;-72
2021/08/08 09:38:12;;;;;;;2.65;1.80;;;;;;;20.73;71.39;100117.27;1815324;77;26441;-72
2021/08/08 09:40:43;;;;;;;3.52;1.47;;;;;;;20.84;70.69;100140.23;1817816;77;25882;-71
2021/08/08 09:43:13;;;;;;;;;;;;;;;20.88;69.69;100134.86;1824621;77;25689;-72
2021/08/08 09:45:45;;;;;;;2.00;1.35;;;;;;;20.99;69.61;100146.09;1786398;79;28196;-72
2021/08/08 09:48:13;;;;;;;5.30;1.45;;;;;;;21.10;69.78;100145.08;1777320;79;25722;-72
2021/08/08 09:50:43;;;;;;;3.65;1.40;;;;;;;21.24;69.66;100149.61;1805520;78;25693;-72
2021/08/08 09:53:19;;;;;;;2.90;1.52;;;;;;;21.31;69.66;100157.55;1812909;78;25853;-72
2021/08/08 09:55:46;;;;;;;4.15;1.45;;;;;;;21.38;69.46;100140.96;1802893;78;25851;-72
2021/08/08 09:58:21;;;;;;;3.83;1.27;;;;;;;21.45;69.31;100175.82;1813802;78;27465;-71
2021/08/08 10:01:00;;;;;;;3.87;1.30;;;;;;;21.43;67.50;100173.74;1802586;78;25716;-72
2021/08/08 10:03:27;;;;;;;5.03;0.98;;;;;;;21.35;66.17;100179.42;1809030;78;25666;-72
2021/08/08 10:05:56;;;;;;;3.30;1.10;;;;;;;21.44;66.85;100179.05;1822232;78;25943;-72
2021/08/08 10:08:25;;;;;;;2.90;1.30;;;;;;;21.55;66.76;100181.60;1818659;76;25710;-72
2021/08/08 10:10:53;;;;;;;1.45;1.30;;;;;;;21.60;66.57;100167.52;1802505;78;27472;-71
2021/08/08 10:13:52;;;;;;;1.52;1.20;;;;;;;21.52;66.53;100150.54;1786658;78;25742;-72
2021/08/08 10:16:21;;;;;;;2.95;1.20;;;;;;;21.71;66.48;100176.37;1796432;78;26375;-72
2021/08/08 10:18:54;;;;;;;1.27;1.15;;;;;;;21.78;65.97;100168.96;1788912;79;25779;-72
2021/08/08 10:21:22;;;;;;;1.02;0.90;;;;;;;21.76;65.20;100152.74;1781595;77;25518;-72
2021/08/08 10:23:52;;;;;;;9.08;1.15;;;;;;;21.88;65.61;100171.15;1773301;79;27612;-73
2021/08/08 10:26:20;;;;;;;5.85;1.22;;;;;;;22.18;65.50;100185.04;1779008;79;25801;-71
2021/08/08 10:28:52;;;;;;;3.08;1.15;;;;;;;22.18;65.50;100185.04;1766788;79;25864;-71
2021/08/08 10:31:23;;;;;;;3.25;1.00;;;;;;;22.19;64.94;100190.85;1843415;76;25684;-71
2021/08/08 10:33:52;;;;;;;2.10;1.10;;;;;;;21.99;63.77;100169.59;1848221;76;32345;-72
2021/08/08 10:36:29;;;;;;;1.98;1.00;;;;;;;22.03;64.13;100181.95;1836946;76;27497;-72
2021/08/08 10:39:13;;;;;;;3.40;0.98;;;;;;;22.03;64.13;100181.95;1838212;76;25887;-72
2021/08/08 10:41:42;;;;;;;3.22;0.93;;;;;;;22.10;64.03;100182.21;1857275;76;25813;-72
2021/08/08 10:44:13;;;;;;;1.80;0.88;;;;;;;22.23;63.79;100189.53;1841463;76;28077;-72
2021/08/08 10:46:50;;;;;;;1.35;0.85;;;;;;;22.39;63.41;100190.23;1845408;76;25830;-72
2021/08/08 10:49:33;;;;;;;1.92;1.00;;;;;;;22.51;63.23;100182.17;1846745;76;26952;-72
2021/08/08 10:52:03;;;;;;;3.25;1.10;;;;;;;22.68;62.98;100185.44;1837076;76;25736;-72
2021/08/08 10:54:44;;;;;;;4.87;0.80;;;;;;;22.81;62.50;100177.74;1840296;76;25759;-72
2021/08/08 10:57:13;;;;;;;2.95;1.50;;;;;;;22.86;62.30;100189.06;1858341;76;26831;-71
2021/08/08 10:59:54;;;;;;;1.10;0.70;;;;;;;22.91;61.52;100196.80;1851108;76;25805;-73
2021/08/08 11:02:28;;;;;;;2.22;0.93;;;;;;;22.91;61.12;100183.98;1821435;78;27435;-71
2021/08/08 11:04:56;;;;;;;7.20;1.05;;;;;;;23.01;60.81;100187.14;1798886;78;25660;-71
2021/08/08 11:07:28;;;;;;;4.25;0.90;;;;;;;23.10;60.75;100185.69;1806213;78;26524;-73
2021/08/08 11:09:55;;;;;;;1.55;0.72;;;;;;;23.15;60.61;100184.70;1808729;78;25775;-72
2021/08/08 11:12:33;;;;;;;3.42;1.02;;;;;;;23.22;60.69;100189.89;1805280;78;25705;-71
2021/08/08 11:14:59;;;;;;;3.75;0.70;;;;;;;23.18;60.47;100202.16;1805457;78;27390;-73
2021/08/08 11:17:29;;;;;;;3.87;0.80;;;;;;;23.07;59.20;100186.01;1803988;78;26339;-73
2021/08/08 11:19:55;;;;;;;2.37;0.65;;;;;;;23.21;59.48;100177.23;1805128;78;25713;-73
2021/08/08 11:22:23;;;;;;;1.22;0.90;;;;;;;23.32;59.41;100184.33;1796831;77;25767;-72
2021/08/08 11:25:00;;;;;;;1.50;0.70;;;;;;;23.43;59.72;100189.51;1795230;79;25764;-72
2021/08/08 11:27:41;;;;;;;2.72;0.78;;;;;;;23.60;59.63;100186.41;1819673;77;27410;-72
2021/08/08 11:30:17;;;;;;;3.20;0.82;;;;;;;23.80;59.22;100185.16;1833081;77;25749;-73
2021/08/08 11:32:44;;;;;;;3.20;1.07;;;;;;;23.85;58.34;100186.04;1820215;77;25814;-72
2021/08/08 11:35:20;;;;;;;1.55;0.45;;;;;;;24.02;58.33;100178.77;1827725;77;25771;-72
2021/08/08 11:37:52;;;;;;;0.78;0.60;;;;;;;24.10;58.02;100183.77;1826950;77;25811;-73